Latest Weather Observations for Lucas Heights (ANSTO)

IDN60801

Issued at 2:22 am EDT Thursday 15 November 2018 (issued every 10 minutes, with the page automatically refreshed every 10 minutes)

About weather observations | Map of weather stations | Latest weather observations for NSW | Other Formats
Station Details ID: 066023 Name: LUCAS HEIGHTS (ANSTO) Lat: -34.05 Lon: 150.98 Height: 140.0 m
Data from the previous 72 hours. | See also: Recent months for locations in New South Wales
Date/Time
EDT
Temp
°C
App
Temp
°C
Dew
Point
°C
Rel
Hum
%
Delta-T
°C
Wind Press
QNH
hPa
Press
MSL
hPa
Rain since
9am
mm
Dir  Spd
km/h
Gust
km/h
Spd
kts
Gust
kts
15/02:00am 18.2 19.0 15.8 86 1.4 SW 6 11 3 6 1014.8 - 0.8
15/01:45am 19.7 19.5 16.7 83 1.8 W 13 19 7 10 1014.9 - 0.8
15/01:30am 20.3 19.2 17.3 83 1.8 W 19 20 10 11 1014.9 - 0.8
15/01:15am 20.1 19.4 17.4 84 1.7 W 17 19 9 10 1015.0 - 0.8
15/01:00am 19.7 19.4 17.4 86 1.4 W 15 19 8 10 1015.1 - 0.8
15/12:45am 19.8 20.5 18.0 89 1.1 W 11 15 6 8 1015.3 - 0.8
15/12:30am 18.0 18.5 16.5 91 0.9 W 9 15 5 8 1015.4 - 0.8
15/12:15am 17.4 18.0 15.9 91 0.9 WSW 7 9 4 5 1015.5 - 0.8
15/12:00am 17.6 18.3 16.0 90 1.0 W 7 11 4 6 1015.5 - 0.8
 
Date/Time
EDT
Temp
°C
App
Temp
°C
Dew
Point
°C
Rel
Hum
%
Delta-T
°C
Wind Press
QNH
hPa
Press
MSL
hPa
Rain since
9am
mm
Dir  Spd
km/h
Gust
km/h
Spd
kts
Gust
kts
14/11:45pm 17.7 18.6 16.1 90 1.0 W 6 7 3 4 1015.6 - 0.8
14/11:30pm 17.9 18.9 16.3 90 1.0 W 6 7 3 4 1015.7 - 0.8
14/11:15pm 17.9 19.6 16.2 90 1.0 W 2 6 1 3 1015.8 - 0.8
14/11:00pm 18.2 19.2 16.4 89 1.1 NW 6 7 3 4 1015.8 - 0.8
14/10:45pm 18.3 19.1 16.4 89 1.1 NW 7 7 4 4 1015.8 - 0.8
14/10:30pm 18.6 19.5 16.6 88 1.2 NNW 7 9 4 5 1015.8 - 0.8
14/10:15pm 18.4 19.3 16.5 89 1.1 NNW 7 11 4 6 1015.7 - 0.8
14/10:00pm 18.5 19.4 16.6 89 1.1 NNW 7 9 4 5 1015.7 - 0.8
14/09:45pm 18.3 19.1 16.4 89 1.1 N 7 11 4 6 1015.7 - 0.8
14/09:30pm 18.6 19.5 16.6 88 1.2 - 7 9 4 5 1015.6 - 0.8
14/09:15pm 18.7 19.3 16.7 88 1.2 N 9 13 5 7 1015.6 - 0.8
14/09:00pm 19.0 19.7 17.0 88 1.2 N 9 15 5 8 1015.5 - 0.8
14/08:45pm 19.3 20.4 17.2 88 1.3 NNE 7 11 4 6 1015.5 - 0.8
14/08:30pm 19.1 20.4 17.0 88 1.3 NE 6 9 3 5 1015.4 - 0.8
14/08:15pm 19.3 20.4 17.1 87 1.3 NNE 7 7 4 4 1015.3 - 0.8
14/08:00pm 19.8 21.6 17.4 86 1.5 NE 4 7 2 4 1015.2 - 0.8
14/07:45pm 20.2 21.6 17.3 83 1.8 NE 6 7 3 4 1015.0 - 0.8
14/07:30pm 20.3 21.6 17.5 84 1.7 NNE 7 11 4 6 1014.8 - 0.8
14/07:15pm 20.3 20.9 17.6 84 1.7 NNE 11 19 6 10 1014.7 - 0.8
14/07:00pm 20.7 21.6 17.5 82 2.0 N 9 15 5 8 1014.8 - 0.6
14/06:45pm 21.0 22.5 17.6 81 2.1 NW 6 7 3 4 1014.8 - 0.6
14/06:30pm 21.2 23.1 17.6 80 2.2 NNW 4 7 2 4 1014.6 - 0.6
14/06:15pm 21.3 22.8 17.6 79 2.3 WNW 6 7 3 4 1014.6 - 0.6
14/06:00pm 21.4 22.9 17.6 79 2.4 NW 6 7 3 4 1014.5 - 0.6
14/05:45pm 21.5 23.0 17.6 78 2.4 NW 6 7 3 4 1014.4 - 0.6
14/05:30pm 21.6 23.1 17.6 78 2.5 N 6 9 3 5 1014.4 - 0.6
14/05:15pm 21.7 23.2 17.6 77 2.5 N 6 7 3 4 1014.4 - 0.6
14/05:00pm 21.6 22.9 17.5 77 2.5 N 7 11 4 6 1014.4 - 0.6
14/04:45pm 21.4 22.9 17.5 78 2.4 N 6 11 3 6 1014.4 - 0.6
14/04:30pm 21.2 22.4 17.3 78 2.4 N 7 11 4 6 1014.5 - 0.6
14/04:15pm 21.2 22.0 17.2 78 2.5 NNW 9 15 5 8 1014.6 - 0.6
14/04:00pm 21.2 21.7 17.4 79 2.3 NNW 11 17 6 9 1014.6 - 0.6
14/03:45pm 21.2 22.1 17.5 79 2.3 NNW 9 15 5 8 1014.7 - 0.6
14/03:30pm 21.2 22.1 17.5 79 2.3 NNW 9 13 5 7 1014.8 - 0.6
14/03:15pm 21.2 22.5 17.5 79 2.3 NNW 7 11 4 6 1014.6 - 0.6
14/03:00pm 21.2 22.6 17.4 79 2.3 N 6 9 3 5 1014.6 - 0.6
14/02:45pm 21.2 22.4 17.3 78 2.4 NNW 7 13 4 7 1014.8 - 0.6
14/02:30pm 21.4 22.2 17.3 77 2.5 N 9 15 5 8 1014.9 - 0.6
14/02:15pm 21.6 22.4 17.4 77 2.6 N 9 15 5 8 1015.1 - 0.6
14/02:00pm 21.7 22.5 17.2 75 2.8 NNW 9 15 5 8 1015.3 - 0.6
14/01:45pm 21.9 22.7 17.3 75 2.8 NNW 9 15 5 8 1015.5 - 0.6
14/01:30pm 22.3 23.8 17.6 75 2.9 WNW 6 13 3 7 1015.4 - 0.6
14/01:15pm 21.6 23.6 17.8 79 2.4 W 4 7 2 4 1015.5 - 0.6
14/01:00pm 20.6 22.3 17.2 81 2.1 NNE 4 6 2 3 1015.6 - 0.6
14/12:45pm 20.1 21.1 16.9 82 2.0 NNW 7 11 4 6 1016.2 - 0.6
14/12:30pm 20.0 21.6 16.8 82 1.9 NNE 4 7 2 4 1016.3 - 0.4
14/12:15pm 19.9 21.6 17.1 84 1.7 S 4 7 2 4 1016.5 - 0.4
14/12:00pm 19.4 20.7 17.0 86 1.5 WNW 6 9 3 5 1017.0 - 0.4
14/11:45am 19.2 19.4 16.8 86 1.5 WNW 11 19 6 10 1017.3 - 0.4
14/11:30am 19.3 20.2 16.7 85 1.6 NW 7 15 4 8 1017.1 - 0.4
14/11:15am 19.3 21.2 16.8 85 1.5 S 2 4 1 2 1016.7 - 0.2
14/11:00am 19.0 20.1 16.5 85 1.5 WNW 6 11 3 6 1017.0 - 0.2
14/10:45am 19.0 19.9 16.6 86 1.5 WNW 7 15 4 8 1016.9 - 0.2
14/10:30am 18.9 19.8 16.5 86 1.4 NW 7 13 4 7 1016.6 - 0.2
14/10:15am 18.9 19.4 16.5 86 1.4 ENE 9 17 5 9 1016.2 - 0.0
14/10:00am 18.7 18.8 16.4 86 1.4 ESE 11 15 6 8 1016.0 - 0.0
14/09:45am 18.6 18.9 16.1 85 1.5 E 9 15 5 8 1016.2 - 0.0
14/09:30am 18.5 19.4 16.0 85 1.5 E 6 7 3 4 1016.4 - 0.0
14/09:15am 18.5 19.3 15.9 85 1.5 - 6 11 3 6 1016.6 - 0.0
14/09:00am 18.5 19.7 15.8 84 1.6 ENE 4 7 2 4 1016.4 - 0.0
14/08:45am 18.4 19.1 15.7 84 1.6 ESE 6 9 3 5 1016.3 - 0.0
14/08:30am 18.4 19.9 15.7 84 1.6 ENE 2 6 1 3 1016.5 - 0.0
14/08:15am 18.2 19.7 15.6 85 1.5 ESE 2 4 1 2 1016.3 - 0.0
14/08:00am 18.1 19.6 15.7 86 1.4 SE 2 4 1 2 1016.2 - 0.0
14/07:45am 17.9 19.8 15.7 87 1.3 CALM 0 2 0 1 1016.2 - 0.0
14/07:30am 17.7 19.1 15.5 87 1.3 - 2 4 1 2 1016.1 - 0.0
14/07:15am 17.6 19.4 15.4 87 1.3 CALM 0 2 0 1 1016.0 - 0.0
14/07:00am 17.4 19.2 15.4 88 1.2 CALM 0 2 0 1 1015.8 - 0.0
14/06:45am 17.1 18.5 15.3 89 1.1 N 2 6 1 3 1015.7 - 0.0
14/06:30am 16.8 17.1 15.0 89 1.0 ENE 7 9 4 5 1015.3 - 0.0
14/06:15am 16.6 17.0 14.8 89 1.0 ENE 6 9 3 5 1015.1 - 0.0
14/06:00am 16.6 17.0 14.8 89 1.0 ENE 6 9 3 5 1015.0 - 0.0
14/05:45am 16.5 17.2 14.6 88 1.1 ENE 4 6 2 3 1014.8 - 0.0
14/05:30am 16.7 17.5 14.7 88 1.2 ENE 4 7 2 4 1014.6 - 0.0
14/05:15am 17.0 17.8 14.9 87 1.2 ENE 4 6 2 3 1014.5 - 0.0
14/05:00am 17.2 17.7 15.1 87 1.2 NE 6 7 3 4 1014.5 - 0.0
14/04:45am 17.2 17.2 15.1 87 1.2 NE 9 11 5 6 1014.5 - 0.0
14/04:30am 17.3 17.6 15.1 87 1.3 NE 7 11 4 6 1014.5 - 0.0
14/04:15am 17.4 17.8 15.2 87 1.3 NE 7 11 4 6 1014.4 - 0.0
14/04:00am 17.3 17.9 15.2 87 1.2 NE 6 7 3 4 1014.6 - 0.0
14/03:45am 17.3 18.2 15.1 87 1.3 NNE 4 7 2 4 1014.7 - 0.0
14/03:30am 17.4 18.0 15.2 87 1.3 NE 6 7 3 4 1014.7 - 0.0
14/03:15am 17.5 17.5 15.3 87 1.3 NE 9 13 5 7 1014.5 - 0.0
14/03:00am 17.5 17.1 15.3 87 1.3 NE 11 15 6 8 1014.5 - 0.0
14/02:45am 17.6 17.3 15.4 87 1.3 NE 11 19 6 10 1014.7 - 0.0
14/02:30am 17.6 16.6 15.5 87 1.2 NE 15 19 8 10 1014.8 - 0.0
14/02:15am 17.5 17.1 15.3 87 1.3 NE 11 15 6 8 1015.2 - 0.0
14/02:00am 17.7 17.8 15.4 86 1.4 NE 9 13 5 7 1015.4 - 0.0
14/01:45am 17.8 17.8 15.3 85 1.5 NE 9 11 5 6 1015.6 - 0.0
14/01:30am 18.1 18.6 15.5 85 1.5 NE 7 11 4 6 1015.8 - 0.0
14/01:15am 18.1 17.7 15.3 84 1.6 NE 11 15 6 8 1015.9 - 0.0
14/01:00am 18.4 18.2 15.6 84 1.7 NE 11 15 6 8 1016.0 - 0.0
14/12:45am 18.5 18.3 15.6 83 1.7 NE 11 15 6 8 1016.2 - 0.0
14/12:30am 18.7 18.5 15.7 83 1.8 NE 11 13 6 7 1016.3 - 0.0
14/12:15am 18.7 18.9 15.7 83 1.8 NE 9 15 5 8 1016.4 - 0.0
14/12:00am 18.8 18.6 15.7 82 1.8 NNE 11 15 6 8 1016.4 - 0.0
 
Date/Time
EDT
Temp
°C
App
Temp
°C
Dew
Point
°C
Rel
Hum
%
Delta-T
°C
Wind Press
QNH
hPa
Press
MSL
hPa
Rain since
9am
mm
Dir  Spd
km/h
Gust
km/h
Spd
kts
Gust
kts
13/11:45pm 18.8 18.3 15.8 83 1.8 NNE 13 19 7 10 1016.4 - 0.0
13/11:30pm 18.7 18.9 15.7 83 1.8 N 9 17 5 9 1016.6 - 0.0
13/11:15pm 18.8 18.6 15.7 82 1.8 N 11 20 6 11 1016.5 - 0.0
13/11:00pm 18.8 18.6 15.7 82 1.8 N 11 17 6 9 1016.6 - 0.0
13/10:45pm 19.0 18.5 15.9 82 1.9 NNE 13 20 7 11 1016.6 - 0.0
13/10:30pm 19.0 17.7 15.8 82 1.9 NNE 17 24 9 13 1016.5 - 0.0
13/10:15pm 19.2 17.6 15.9 81 2.0 NNE 19 28 10 15 1016.5 - 0.0
13/10:00pm 19.2 17.6 15.9 81 2.0 NNE 19 28 10 15 1016.6 - 0.0
13/09:45pm 19.4 18.1 15.9 80 2.1 NNE 17 26 9 14 1016.8 - 0.0
13/09:30pm 19.5 17.8 15.8 79 2.2 NNE 19 30 10 16 1016.7 - 0.0
13/09:15pm 19.6 17.8 15.9 79 2.2 NNE 20 33 11 18 1016.6 - 0.0
13/09:00pm 19.7 18.1 16.0 79 2.2 NNE 19 33 10 18 1016.6 - 0.0
13/08:45pm 19.9 17.7 16.0 78 2.3 NNE 22 39 12 21 1016.4 - 0.0
13/08:30pm 20.0 17.8 16.0 78 2.4 NNE 22 35 12 19 1016.3 - 0.0
13/08:15pm 20.1 18.5 16.0 77 2.5 NNE 19 33 10 18 1016.1 - 0.0
13/08:00pm 20.2 18.6 16.0 77 2.5 NE 19 28 10 15 1015.9 - 0.0
13/07:45pm 20.4 17.5 16.0 76 2.6 NE 26 39 14 21 1015.9 - 0.0
13/07:30pm 20.6 18.8 16.0 75 2.8 NE 20 37 11 20 1015.9 - 0.0
13/07:15pm 20.9 18.7 15.9 73 3.0 NE 22 37 12 20 1015.8 - 0.0
13/07:00pm 21.2 19.3 15.8 71 3.2 NE 20 35 11 19 1015.8 - 0.0
13/06:45pm 21.2 19.2 15.6 70 3.4 NNE 20 39 11 21 1015.7 - 0.0
13/06:30pm 21.5 19.5 15.5 68 3.6 NNE 20 32 11 17 1015.5 - 0.0
13/06:15pm 21.7 19.7 15.6 68 3.7 NNE 20 33 11 18 1015.3 - 0.0
13/06:00pm 21.9 20.1 15.6 67 3.8 NE 19 28 10 15 1015.2 - 0.0
13/05:45pm 22.0 19.6 15.5 66 3.9 NE 22 33 12 18 1015.2 - 0.0
13/05:30pm 22.2 19.3 15.2 64 4.2 NE 24 33 13 18 1015.2 - 0.0
13/05:15pm 22.8 19.9 15.0 61 4.7 NE 24 33 13 18 1015.2 - 0.0
13/05:00pm 23.1 20.1 14.8 59 5.0 NE 24 33 13 18 1015.3 - 0.0
13/04:45pm 23.6 20.9 14.7 57 5.3 NE 22 32 12 17 1015.3 - 0.0
13/04:30pm 24.0 21.7 14.7 56 5.6 NE 20 32 11 17 1015.4 - 0.0
13/04:15pm 24.1 21.1 14.8 56 5.6 NE 24 32 13 17 1015.4 - 0.0
13/04:00pm 24.1 21.1 14.9 56 5.5 NE 24 39 13 21 1015.4 - 0.0
13/03:45pm 24.1 20.7 14.8 56 5.6 ENE 26 35 14 19 1015.6 - 0.0
13/03:30pm 24.6 21.3 15.0 55 5.8 ENE 26 33 14 18 1015.9 - 0.0
13/03:15pm 24.8 22.2 14.9 54 6.0 NE 22 32 12 17 1016.1 - 0.0
13/03:00pm 25.2 23.1 15.1 53 6.1 ENE 20 32 11 17 1016.3 - 0.0
13/02:45pm 24.8 22.6 14.5 52 6.2 ENE 19 32 10 17 1016.5 - 0.0
13/02:30pm 25.0 22.6 14.4 51 6.3 ENE 20 30 11 16 1016.7 - 0.0
13/02:15pm 24.8 22.5 14.0 51 6.4 NE 19 28 10 15 1016.8 - 0.0
13/02:00pm 24.8 22.5 14.0 51 6.4 ENE 19 24 10 13 1017.0 - 0.0
13/01:45pm 24.9 22.5 13.8 50 6.6 NE 19 28 10 15 1017.1 - 0.0
13/01:30pm 24.6 22.1 13.5 50 6.5 NE 19 32 10 17 1017.2 - 0.0
13/01:15pm 25.3 22.7 13.3 47 7.0 ENE 19 30 10 16 1017.4 - 0.0
13/01:00pm 24.9 22.6 13.0 47 6.9 ENE 17 24 9 13 1017.8 - 0.0
13/12:45pm 25.0 22.3 12.9 47 7.1 NE 19 26 10 14 1018.0 - 0.0
13/12:30pm 24.8 22.5 13.0 47 6.9 ENE 17 24 9 13 1018.3 - 0.0
13/12:15pm 24.5 22.4 12.5 47 6.9 NNE 15 20 8 11 1018.5 - 0.0
13/12:00pm 23.9 21.6 10.5 42 7.5 N 13 24 7 13 1018.7 - 0.0
13/11:45am 24.3 21.6 10.3 41 7.8 - 15 32 8 17 1018.6 - 0.0
13/11:30am 24.2 21.5 10.3 41 7.7 NNE 15 30 8 16 1018.7 - 0.0
13/11:15am 23.9 21.2 10.5 42 7.5 N 15 28 8 15 1018.8 - 0.0
13/11:00am 23.6 21.8 10.9 44 7.1 NNE 11 20 6 11 1019.2 - 0.0
13/10:45am 23.4 20.4 10.5 44 7.2 N 17 30 9 16 1019.4 - 0.0
13/10:30am 23.3 20.4 10.9 45 6.9 N 17 26 9 14 1019.5 - 0.0
13/10:15am 23.2 20.9 11.9 49 6.4 N 15 24 8 13 1019.6 - 0.0
13/10:00am 22.5 19.8 11.7 50 6.1 N 17 28 9 15 1019.5 - 0.0
13/09:45am 22.3 20.4 13.1 56 5.3 N 15 26 8 14 1019.5 - 0.0
13/09:30am 21.4 19.1 13.0 58 4.8 N 17 30 9 16 1019.6 - 0.0
13/09:15am 21.0 18.1 13.0 60 4.6 NNE 20 32 11 17 1019.8 - 0.0
13/09:00am 20.9 19.2 13.6 63 4.2 N 15 24 8 13 1020.0 - 0.0
13/08:45am 20.2 19.0 14.1 68 3.6 N 13 20 7 11 1020.2 - 0.0
13/08:30am 19.2 18.9 14.3 73 2.8 N 9 19 5 10 1020.2 - 0.0
13/08:15am 19.0 18.7 14.4 74 2.7 N 9 17 5 9 1020.2 - 0.0
13/08:00am 18.6 17.9 14.3 76 2.5 NNW 11 19 6 10 1020.2 - 0.0
13/07:45am 18.6 18.0 14.5 77 2.4 N 11 20 6 11 1020.0 - 0.0
13/07:30am 18.6 17.6 14.6 77 2.3 - 13 20 7 11 1019.8 - 0.0
13/07:15am 18.2 18.4 14.7 80 2.0 N 7 17 4 9 1019.7 - 0.0
13/07:00am 17.5 17.6 14.5 82 1.7 NNW 7 11 4 6 1019.7 - 0.0
13/06:45am 16.9 16.6 14.5 86 1.4 N 9 11 5 6 1019.6 - 0.0
13/06:30am 15.9 15.2 14.2 90 1.0 NNE 11 17 6 9 1019.5 - 0.0
13/06:15am 14.8 13.3 13.0 89 1.0 NNE 13 17 7 9 1019.2 - 0.0
13/06:00am 15.0 13.5 13.2 89 1.0 NNE 13 15 7 8 1019.1 - 0.0
13/05:45am 15.4 14.4 13.5 88 1.1 NNE 11 15 6 8 1019.1 - 0.0
13/05:30am 15.5 14.3 14.0 91 0.9 N 13 17 7 9 1019.1 - 0.0
13/05:15am 14.9 14.2 13.3 90 0.9 N 9 15 5 8 1019.2 - 0.0
13/05:00am 14.9 14.2 13.2 89 0.9 - 9 15 5 8 1019.2 - 0.0
13/04:45am 15.5 15.0 13.9 90 0.9 - 9 15 5 8 1019.1 - 0.0
13/04:30am 15.2 15.0 13.7 91 0.8 N 7 11 4 6 1019.3 - 0.0
13/04:15am 15.0 14.8 13.5 91 0.8 N 7 9 4 5 1019.4 - 0.0
13/04:00am 14.9 14.8 13.2 89 0.9 N 6 7 3 4 1019.4 - 0.0
13/03:45am 15.1 15.1 13.5 90 0.9 NNW 6 9 3 5 1019.4 - 0.0
13/03:30am 14.9 14.8 13.2 89 0.9 NNW 6 7 3 4 1019.5 - 0.0
13/03:15am 15.1 15.0 13.4 89 1.0 NNW 6 7 3 4 1019.6 - 0.0
13/03:00am 15.2 15.2 13.5 89 1.0 NW 6 7 3 4 1019.6 - 0.0
13/02:45am 15.3 15.1 13.5 89 1.0 NW 7 7 4 4 1019.7 - 0.0
13/02:30am 15.7 15.6 13.9 89 1.0 NW 7 9 4 5 1019.9 - 0.0
13/02:15am 15.7 15.3 14.0 90 1.0 NW 9 9 5 5 1020.0 - 0.0
13/02:00am 15.7 15.6 13.9 89 1.0 NNW 7 9 4 5 1020.0 - 0.0
13/01:45am 15.7 15.6 13.8 88 1.1 NNW 7 7 4 4 1020.3 - 0.0
13/01:30am 15.7 15.8 13.8 88 1.1 NNW 6 7 3 4 1020.3 - 0.0
13/01:15am 15.8 15.8 13.6 87 1.2 N 6 7 3 4 1020.3 - 0.0
13/01:00am 16.4 16.7 14.4 88 1.1 N 6 11 3 6 1020.4 - 0.0
13/12:45am 16.4 16.1 14.4 88 1.1 NNW 9 9 5 5 1020.7 - 0.0
13/12:30am 16.2 15.9 14.3 88 1.1 NNW 9 11 5 6 1020.8 - 0.0
13/12:15am 16.2 16.2 14.2 88 1.1 N 7 11 4 6 1020.9 - 0.0
13/12:00am 16.2 16.2 14.1 87 1.2 N 7 11 4 6 1021.1 - 0.0
 
Date/Time
EDT
Temp
°C
App
Temp
°C
Dew
Point
°C
Rel
Hum
%
Delta-T
°C
Wind Press
QNH
hPa
Press
MSL
hPa
Rain since
9am
mm
Dir  Spd
km/h
Gust
km/h
Spd
kts
Gust
kts
12/11:45pm 16.1 15.3 13.9 87 1.3 N 11 13 6 7 1021.1 - 0.0
12/11:30pm 16.2 15.7 13.9 86 1.3 N 9 13 5 7 1021.2 - 0.0
12/11:15pm 16.3 15.8 13.9 86 1.4 N 9 13 5 7 1021.2 - 0.0
12/11:00pm 16.5 15.7 14.0 85 1.4 N 11 15 6 8 1021.4 - 0.0
12/10:45pm 16.5 15.7 13.9 84 1.5 - 11 15 6 8 1021.5 - 0.0
12/10:30pm 16.6 15.7 13.8 83 1.6 - 11 15 6 8 1021.6 - 0.0
12/10:15pm 16.8 16.3 13.8 82 1.7 N 9 15 5 8 1021.6 - 0.0
12/10:00pm 17.0 16.2 13.9 82 1.8 N 11 17 6 9 1021.5 - 0.0
12/09:45pm 17.3 16.5 13.9 80 1.9 NNE 11 17 6 9 1021.4 - 0.0
12/09:30pm 17.4 16.1 13.8 79 2.1 NNE 13 17 7 9 1021.3 - 0.0
12/09:15pm 17.6 15.9 13.7 78 2.2 NNE 15 20 8 11 1021.2 - 0.0
12/09:00pm 17.8 16.5 13.6 76 2.4 NNE 13 19 7 10 1021.1 - 0.0
12/08:45pm 18.0 16.6 13.5 75 2.6 NE 13 19 7 10 1021.0 - 0.0
12/08:30pm 18.1 16.7 13.4 74 2.7 NE 13 20 7 11 1021.0 - 0.0
12/08:15pm 18.3 16.9 13.4 73 2.8 NE 13 19 7 10 1021.0 - 0.0
12/08:00pm 18.4 16.6 13.2 71 3.0 NE 15 20 8 11 1020.8 - 0.0
12/07:45pm 18.7 16.8 13.0 69 3.2 ENE 15 24 8 13 1020.8 - 0.0
12/07:30pm 19.1 17.2 12.9 67 3.5 ENE 15 20 8 11 1020.7 - 0.0
12/07:15pm 19.6 16.8 12.6 64 4.0 ENE 19 26 10 14 1020.5 - 0.0
12/07:00pm 20.0 17.6 12.6 62 4.2 ENE 17 22 9 12 1020.5 - 0.0
12/06:45pm 20.4 18.3 12.4 60 4.5 ENE 15 22 8 12 1020.3 - 0.0
12/06:30pm 20.6 17.4 12.0 57 4.8 ENE 20 28 11 15 1020.1 - 0.0
12/06:15pm 21.2 18.0 11.9 55 5.2 NE 20 28 11 15 1020.0 - 0.0
12/06:00pm 21.4 18.2 11.9 54 5.4 ENE 20 28 11 15 1019.9 - 0.0
12/05:45pm 21.7 18.7 11.8 53 5.6 ENE 19 32 10 17 1019.9 - 0.0
12/05:30pm 21.9 18.9 12.0 53 5.6 NE 19 30 10 16 1019.9 - 0.0
12/05:15pm 22.1 19.6 12.2 53 5.6 ENE 17 24 9 13 1019.9 - 0.0
12/05:00pm 22.4 19.9 12.4 53 5.7 ENE 17 24 9 13 1019.9 - 0.0
12/04:45pm 22.4 19.4 11.9 51 5.9 ENE 19 26 10 14 1020.0 - 0.0
12/04:30pm 22.6 19.7 12.4 52 5.8 NE 19 24 10 13 1019.9 - 0.0
12/04:15pm 22.6 19.7 12.9 54 5.6 NE 20 28 11 15 1019.9 - 0.0
12/04:00pm 22.8 19.9 13.0 54 5.7 NE 20 28 11 15 1019.8 - 0.0
12/03:45pm 23.2 20.3 12.8 52 6.0 ENE 20 28 11 15 1019.9 - 0.0
12/03:30pm 23.2 20.6 13.3 53 5.8 ENE 19 28 10 15 1020.1 - 0.0
12/03:15pm 23.3 20.5 13.3 53 5.8 ENE 20 32 11 17 1020.3 - 0.0
12/03:00pm 23.2 20.5 12.9 52 6.0 NE 19 30 10 16 1020.4 - 0.0
12/02:45pm 23.4 20.7 13.0 52 6.0 ENE 19 28 10 15 1020.7 - 0.0
12/02:30pm 23.5 20.6 12.4 49 6.4 NE 19 32 10 17 1020.8 - 0.0
12/02:15pm 23.6 21.1 12.2 48 6.5 NE 17 28 9 15 1021.1 - 0.0
12/02:00pm 23.7 21.3 12.7 50 6.4 ENE 17 32 9 17 1021.4 - 0.0
12/01:45pm 23.3 21.7 13.8 55 5.6 NE 15 28 8 15 1021.6 - 0.0
12/01:30pm 23.1 21.2 14.1 57 5.3 NE 17 28 9 15 1021.6 - 0.0
12/01:15pm 23.0 21.1 14.1 57 5.2 NE 17 24 9 13 1021.8 - 0.0
12/01:00pm 22.8 20.5 14.0 57 5.2 ENE 19 30 10 16 1021.9 - 0.0
12/12:45pm 22.9 21.0 14.2 58 5.1 E 17 28 9 15 1022.2 - 0.0
12/12:30pm 22.8 20.8 14.0 57 5.2 ENE 17 26 9 14 1022.3 - 0.0
12/12:15pm 22.6 21.1 14.1 58 5.0 ENE 15 24 8 13 1022.5 - 0.0
12/12:00pm 22.9 22.0 13.8 56 5.3 NE 11 20 6 11 1022.7 - 0.0
12/11:45am 22.9 22.1 14.1 57 5.2 NE 11 20 6 11 1023.0 - 0.0
12/11:30am 22.9 22.0 13.8 56 5.3 ENE 11 19 6 10 1023.2 - 0.0
12/11:15am 22.7 21.5 14.0 58 5.1 ENE 13 19 7 10 1023.3 - 0.0
12/11:00am 22.4 21.5 13.8 58 5.0 ENE 11 24 6 13 1023.4 - 0.0
12/10:45am 21.8 21.5 13.4 59 4.9 ENE 7 15 4 8 1023.6 - 0.0
12/10:30am 21.9 20.8 13.2 57 5.0 NE 11 20 6 11 1023.6 - 0.0
12/10:15am 21.9 21.2 13.2 57 5.0 NE 9 15 5 8 1023.6 - 0.0
12/10:00am 21.3 20.9 13.0 59 4.8 NE 7 13 4 7 1023.6 - 0.0
12/09:45am 21.3 20.7 13.4 60 4.6 ENE 9 15 5 8 1023.7 - 0.0
12/09:30am 20.7 20.0 13.3 62 4.3 ENE 9 15 5 8 1023.8 - 0.0
12/09:15am 21.0 20.8 13.7 63 4.2 NE 7 15 4 8 1023.9 - 0.0
12/09:00am 20.3 20.8 13.9 66 3.7 NE 4 9 2 5 1023.9 - 0.0
12/08:45am 19.0 19.0 13.7 71 3.0 NNE 6 9 3 5 1023.9 - 0.0
12/08:30am 19.0 19.2 14.2 73 2.8 ENE 6 9 3 5 1023.8 - 0.0
12/08:15am 19.3 19.6 14.4 73 2.9 E 6 7 3 4 1023.7 - 0.0
12/08:00am 18.7 19.4 14.4 76 2.5 E 4 7 2 4 1023.5 - 0.0
12/07:45am 17.6 17.7 13.8 78 2.2 E 6 7 3 4 1023.4 - 0.0
12/07:30am 16.7 16.6 13.4 81 1.9 E 6 7 3 4 1023.2 - 0.0
12/07:15am 15.7 15.4 13.2 85 1.4 E 7 7 4 4 1023.2 - 0.0
12/07:00am 14.3 13.8 12.5 89 1.0 E 7 9 4 5 1023.2 - 0.0
12/06:45am 13.1 11.9 11.5 90 0.9 ESE 9 9 5 5 1023.3 - 0.0
12/06:30am 12.4 11.0 10.9 90 0.8 ESE 9 9 5 5 1023.1 - 0.0
12/06:15am 11.9 10.7 10.4 90 0.8 ESE 7 9 4 5 1023.1 - 0.0
12/06:00am 12.0 11.0 10.4 90 0.8 ESE 6 7 3 4 1022.9 - 0.0
12/05:45am 12.2 11.3 10.6 90 0.8 ESE 6 7 3 4 1022.8 - 0.0
12/05:30am 12.8 12.1 11.3 91 0.8 ESE 6 6 3 3 1022.6 - 0.0
12/05:15am 12.4 11.4 10.9 90 0.8 ESE 7 9 4 5 1022.5 - 0.0
12/05:00am 12.2 11.1 10.7 90 0.8 ESE 7 9 4 5 1022.5 - 0.0
12/04:45am 12.4 11.4 10.9 90 0.8 ESE 7 7 4 4 1022.4 - 0.0
12/04:30am 12.2 11.1 10.7 90 0.8 ESE 7 7 4 4 1022.3 - 0.0
12/04:15am 11.9 10.9 10.4 90 0.8 ESE 6 7 3 4 1022.3 - 0.0
12/04:00am 12.1 11.2 10.7 91 0.7 E 6 7 3 4 1022.1 - 0.0
12/03:45am 11.8 10.8 10.2 90 0.8 E 6 7 3 4 1022.1 - 0.0
12/03:30am 12.0 11.0 10.4 90 0.8 E 6 6 3 3 1022.1 - 0.0
12/03:15am 12.0 11.0 10.4 90 0.8 E 6 6 3 3 1022.2 - 0.0
12/03:00am 12.1 11.5 10.4 89 0.9 E 4 6 2 3 1022.3 - 0.0
12/02:45am 12.3 11.7 10.5 89 0.9 E 4 6 2 3 1022.5 - 0.0
12/02:30am 12.7 12.2 10.9 89 0.9 E 4 6 2 3 1022.5 - 0.0

Other Formats:

Comma delimited format used in spreadsheet applications
http://www.bom.gov.au/fwo/IDN60801/IDN60801.95757.axf

JavaScript Object Notation format (JSON) in row-major order
http://www.bom.gov.au/fwo/IDN60801/IDN60801.95757.json